Time;durP1;ratioP1;P1;durP2;ratioP2;P2;SDS_P1;SDS_P2;PMS_P1;PMS_P2;Temp;Humidity;BMP_temperature;BMP_pressure;BME280_temperature;BME280_humidity;BME280_pressure;Samples;Min_cycle;Max_cycle;Signal;HPM_P1;HPM_P2
2022/10/02 00:01:54;;;;;;;6.37;2.60;;;13.70;99.90;;;;;;6249981;22;20189;-72
2022/10/02 00:04:25;;;;;;;6.50;2.30;;;13.70;99.90;;;;;;6240586;22;20431;-73
2022/10/02 00:06:54;;;;;;;3.63;2.00;;;13.70;99.90;;;;;;6247084;22;20498;-73
2022/10/02 00:09:31;;;;;;;4.27;1.70;;;13.70;99.90;;;;;;6240692;22;20984;-73
2022/10/02 00:12:00;;;;;;;7.47;2.30;;;13.70;99.90;;;;;;6221167;22;20538;-73
2022/10/02 00:14:31;;;;;;;5.93;2.80;;;13.70;99.90;;;;;;6227453;23;20436;-74
2022/10/02 00:17:01;;;;;;;3.83;1.60;;;13.70;99.90;;;;;;6250602;22;20545;-74
2022/10/02 00:19:28;;;;;;;5.50;2.57;;;13.70;99.90;;;;;;6246826;22;20433;-73
2022/10/02 00:22:26;;;;;;;5.63;2.03;;;13.70;99.90;;;;;;6239508;23;20427;-73
2022/10/02 00:25:01;;;;;;;6.28;2.00;;;13.60;99.90;;;;;;6206470;22;20465;-73
2022/10/02 00:27:38;;;;;;;6.77;2.40;;;13.50;99.90;;;;;;6240062;22;20206;-73
2022/10/02 00:30:10;;;;;;;6.30;2.20;;;13.50;99.90;;;;;;6225658;22;20588;-75
2022/10/02 00:32:44;;;;;;;4.70;2.10;;;13.40;99.90;;;;;;6235922;22;20476;-73
2022/10/02 00:35:29;;;;;;;7.60;2.10;;;13.30;99.90;;;;;;6250549;22;20241;-73
2022/10/02 00:38:04;;;;;;;5.18;2.05;;;13.20;99.90;;;;;;6218307;22;20281;-73
2022/10/02 00:40:45;;;;;;;5.17;2.17;;;13.10;99.90;;;;;;6250451;22;20317;-73
2022/10/02 00:43:24;;;;;;;4.50;2.30;;;13.00;99.90;;;;;;6260744;22;21022;-73
2022/10/02 00:46:15;;;;;;;7.03;2.43;;;12.90;99.90;;;;;;6226482;22;21032;-73
2022/10/02 00:49:05;;;;;;;7.47;2.35;;;12.90;99.90;;;;;;6238110;23;20502;-73
2022/10/02 00:51:53;;;;;;;7.63;2.30;;;12.90;99.90;;;;;;6238736;22;20197;-73
2022/10/02 00:54:45;;;;;;;6.00;2.20;;;12.90;99.90;;;;;;6238352;22;20209;-73
2022/10/02 00:57:23;;;;;;;7.88;2.88;;;12.90;99.90;;;;;;6249742;22;20534;-73
2022/10/02 01:00:03;;;;;;;5.75;2.00;;;12.90;99.90;;;;;;6246763;22;20188;-73
2022/10/02 01:03:07;;;;;;;7.13;2.20;;;12.90;99.90;;;;;;6242210;22;20193;-72
2022/10/02 01:05:35;;;;;;;6.13;1.90;;;12.90;99.90;;;;;;6189927;22;20184;-72
2022/10/02 01:08:02;;;;;;;6.55;2.55;;;13.00;99.90;;;;;;6235654;22;20212;-73
2022/10/02 01:10:30;;;;;;;5.43;2.25;;;13.00;99.90;;;;;;6241341;22;20516;-72
2022/10/02 01:12:58;;;;;;;6.35;2.10;;;13.00;99.90;;;;;;6239656;22;20217;-72
2022/10/02 01:15:30;;;;;;;4.82;2.00;;;13.00;99.90;;;;;;6229251;22;20220;-72
2022/10/02 01:17:58;;;;;;;5.10;2.20;;;13.00;99.90;;;;;;6233211;22;20185;-72
2022/10/02 01:20:33;;;;;;;5.78;1.77;;;13.00;99.90;;;;;;6258680;22;20191;-72
2022/10/02 01:23:08;;;;;;;3.90;2.00;;;13.10;99.90;;;;;;6237530;22;20290;-72
2022/10/02 01:25:36;;;;;;;5.72;1.95;;;13.10;99.90;;;;;;6260924;22;20184;-72
2022/10/02 01:28:04;;;;;;;4.75;2.67;;;13.10;99.90;;;;;;6236775;23;20640;-72
2022/10/02 01:30:34;;;;;;;8.27;2.50;;;13.20;99.90;;;;;;6237914;23;20189;-72
2022/10/02 01:33:03;;;;;;;4.05;1.70;;;13.20;99.90;;;;;;6246452;22;20372;-72
2022/10/02 01:35:33;;;;;;;4.78;1.90;;;13.30;99.90;;;;;;6252747;22;20200;-72
2022/10/02 01:38:04;;;;;;;3.30;1.70;;;13.30;99.90;;;;;;6238584;23;20186;-73
2022/10/02 01:40:34;;;;;;;7.10;2.53;;;13.30;99.90;;;;;;6239039;23;20253;-73
2022/10/02 01:43:04;;;;;;;7.30;2.25;;;13.30;99.90;;;;;;6237168;22;20937;-73
2022/10/02 01:45:44;;;;;;;3.88;1.70;;;13.40;99.90;;;;;;6239270;23;20220;-72
2022/10/02 01:48:16;;;;;;;5.33;1.87;;;13.40;99.90;;;;;;6244840;22;20191;-72
2022/10/02 01:50:54;;;;;;;5.18;1.70;;;13.40;99.90;;;;;;6239344;23;20442;-72
2022/10/02 01:53:28;;;;;;;5.65;1.90;;;13.40;99.90;;;;;;6235356;23;20256;-73
2022/10/02 01:56:05;;;;;;;5.67;2.07;;;13.40;99.90;;;;;;6240296;22;20605;-72
2022/10/02 01:58:44;;;;;;;4.90;1.90;;;13.50;99.90;;;;;;6235727;22;20536;-73
2022/10/02 02:01:20;;;;;;;3.75;1.80;;;13.50;99.90;;;;;;6251389;22;20707;-73
2022/10/02 02:03:54;;;;;;;6.07;1.88;;;13.50;99.90;;;;;;6239346;23;20259;-73
2022/10/02 02:06:30;;;;;;;6.87;2.00;;;13.60;99.90;;;;;;6240136;22;20288;-72
2022/10/02 02:09:05;;;;;;;6.60;2.63;;;13.70;99.90;;;;;;6245958;22;20915;-73
2022/10/02 02:11:35;;;;;;;6.67;2.07;;;13.70;99.90;;;;;;6245988;22;20534;-73
2022/10/02 02:14:07;;;;;;;4.00;1.70;;;13.90;99.90;;;;;;6242025;22;20471;-73
2022/10/02 02:16:40;;;;;;;6.03;2.40;;;13.70;99.90;;;;;;6238685;22;20977;-72
2022/10/02 02:19:13;;;;;;;5.60;2.00;;;13.70;99.90;;;;;;6244261;22;20469;-72
2022/10/02 02:21:44;;;;;;;3.60;1.70;;;13.70;99.90;;;;;;6237410;23;20731;-72
2022/10/02 02:24:17;;;;;;;3.17;1.90;;;13.80;99.90;;;;;;6249707;22;20485;-72
2022/10/02 02:26:46;;;;;;;4.90;1.87;;;13.80;99.90;;;;;;6253921;22;20486;-73
2022/10/02 02:29:18;;;;;;;4.43;1.93;;;13.80;99.90;;;;;;6232566;22;20471;-73
2022/10/02 02:31:50;;;;;;;3.27;1.60;;;13.80;99.90;;;;;;6237431;22;20441;-72
2022/10/02 02:34:22;;;;;;;4.10;2.00;;;13.80;99.90;;;;;;6239028;23;20881;-72
2022/10/02 02:36:53;;;;;;;6.30;1.90;;;13.80;99.90;;;;;;6237582;22;20463;-72
2022/10/02 02:39:26;;;;;;;3.03;1.70;;;13.80;99.90;;;;;;6238252;22;20432;-72
2022/10/02 02:41:58;;;;;;;6.60;2.17;;;13.80;99.90;;;;;;6236562;22;20491;-72
2022/10/02 02:44:30;;;;;;;6.70;2.03;;;13.80;99.90;;;;;;6239917;22;20500;-72
2022/10/02 02:47:05;;;;;;;4.87;2.10;;;13.80;99.90;;;;;;6240900;22;20863;-73
2022/10/02 02:49:43;;;;;;;5.43;2.00;;;13.80;99.90;;;;;;6231423;22;20797;-72
2022/10/02 02:52:16;;;;;;;4.30;1.73;;;13.90;99.90;;;;;;6249004;22;20422;-72
2022/10/02 02:54:48;;;;;;;6.80;1.93;;;13.90;99.90;;;;;;6217865;23;20467;-72
2022/10/02 02:57:18;;;;;;;3.27;1.80;;;13.90;99.90;;;;;;6250157;22;20541;-72
2022/10/02 02:59:49;;;;;;;4.73;2.03;;;13.90;99.90;;;;;;6246644;22;20520;-71
2022/10/02 03:02:17;;;;;;;6.03;2.10;;;13.90;99.90;;;;;;6253185;22;20890;-71
2022/10/02 03:04:44;;;;;;;5.97;2.30;;;13.90;99.90;;;;;;6243035;22;20515;-71
2022/10/02 03:07:15;;;;;;;2.80;1.60;;;13.90;99.90;;;;;;6244895;22;20461;-72
2022/10/02 03:09:47;;;;;;;4.50;2.10;;;13.90;99.90;;;;;;6244126;22;20442;-71
2022/10/02 03:12:25;;;;;;;5.60;2.00;;;13.90;99.90;;;;;;6240309;22;20515;-72
2022/10/02 03:15:14;;;;;;;5.77;1.80;;;13.90;99.90;;;;;;6235580;22;20460;-71
2022/10/02 03:17:56;;;;;;;4.47;1.80;;;13.90;99.90;;;;;;6228456;23;21071;-80
2022/10/02 03:20:35;;;;;;;4.63;2.20;;;13.90;99.90;;;;;;6242452;22;20437;-73
2022/10/02 03:23:12;;;;;;;5.40;2.03;;;13.90;99.90;;;;;;6232196;22;20527;-73
2022/10/02 03:25:45;;;;;;;4.50;1.67;;;13.90;99.90;;;;;;6240627;22;20455;-73
2022/10/02 03:28:16;;;;;;;4.27;1.90;;;14.00;99.90;;;;;;6237785;22;20516;-73
2022/10/02 03:30:46;;;;;;;3.80;1.73;;;14.00;99.90;;;;;;6235866;23;21013;-73
2022/10/02 03:33:16;;;;;;;4.67;2.30;;;14.00;99.90;;;;;;6239070;23;20549;-73
2022/10/02 03:35:44;;;;;;;2.87;1.70;;;14.10;99.90;;;;;;6238309;23;20498;-73
2022/10/02 03:38:14;;;;;;;4.50;2.50;;;14.10;99.90;;;;;;6236722;22;20432;-73
2022/10/02 03:40:41;;;;;;;3.40;1.63;;;14.10;99.90;;;;;;6235788;23;20544;-73
2022/10/02 03:43:10;;;;;;;8.23;2.30;;;14.10;99.90;;;;;;6238371;23;20519;-73
2022/10/02 03:45:37;;;;;;;5.30;2.30;;;14.10;99.90;;;;;;6242639;22;21013;-73
2022/10/02 03:48:05;;;;;;;5.47;2.30;;;14.10;99.90;;;;;;6253768;22;20518;-73
2022/10/02 03:50:32;;;;;;;4.37;2.30;;;14.10;99.90;;;;;;6228191;22;20463;-73
2022/10/02 03:52:59;;;;;;;5.37;2.60;;;14.10;99.90;;;;;;6228540;22;20461;-73
2022/10/02 03:55:32;;;;;;;7.80;2.30;;;14.10;99.90;;;;;;6242358;22;20465;-74
2022/10/02 03:58:01;;;;;;;4.80;2.80;;;14.10;99.90;;;;;;6246977;22;20457;-73
2022/10/02 04:00:35;;;;;;;4.10;1.97;;;14.10;99.90;;;;;;6246042;22;20833;-73
2022/10/02 04:03:10;;;;;;;6.57;2.40;;;14.00;99.90;;;;;;6255278;22;20476;-73
2022/10/02 04:05:41;;;;;;;6.77;2.00;;;14.00;99.90;;;;;;6235774;22;20651;-73
2022/10/02 04:08:16;;;;;;;5.13;2.07;;;14.00;99.90;;;;;;6223654;22;20470;-73
2022/10/02 04:10:49;;;;;;;4.67;2.10;;;14.10;99.90;;;;;;6238858;23;20516;-73
2022/10/02 04:13:24;;;;;;;5.27;2.00;;;14.10;99.90;;;;;;6261290;22;20567;-73
2022/10/02 04:16:04;;;;;;;7.13;2.40;;;14.00;99.90;;;;;;6244699;22;20487;-73
2022/10/02 04:18:41;;;;;;;6.13;2.00;;;14.00;99.90;;;;;;6239477;22;20779;-73
2022/10/02 04:21:15;;;;;;;5.73;2.07;;;14.00;99.90;;;;;;6240184;22;20469;-73
2022/10/02 04:23:48;;;;;;;4.77;1.77;;;14.00;99.90;;;;;;6236413;22;20467;-74
2022/10/02 04:26:20;;;;;;;5.50;1.93;;;14.20;99.90;;;;;;6245672;22;20537;-73
2022/10/02 04:28:54;;;;;;;6.90;2.10;;;14.00;99.90;;;;;;6236865;22;20478;-73
2022/10/02 04:31:21;;;;;;;8.00;1.97;;;14.00;99.90;;;;;;6237851;22;20431;-74
2022/10/02 04:33:49;;;;;;;3.47;2.00;;;14.10;99.90;;;;;;6238151;22;20499;-74
2022/10/02 04:36:30;;;;;;;4.57;2.03;;;14.10;99.90;;;;;;6237990;22;20541;-73
2022/10/02 04:39:27;;;;;;;6.57;2.20;;;14.00;99.90;;;;;;6239507;22;20470;-73
2022/10/02 04:42:22;;;;;;;5.67;3.00;;;14.00;99.90;;;;;;6242093;22;20438;-73
2022/10/02 04:45:10;;;;;;;5.23;2.20;;;14.00;99.90;;;;;;6241567;22;21135;-74
2022/10/02 04:47:55;;;;;;;5.30;2.30;;;14.00;99.90;;;;;;6235229;22;20442;-73
2022/10/02 04:50:38;;;;;;;5.40;2.17;;;13.90;99.90;;;;;;6239141;22;20221;-73
2022/10/02 04:53:37;;;;;;;6.77;1.93;;;13.90;99.90;;;;;;6247182;22;20537;-73
2022/10/02 04:56:23;;;;;;;6.07;2.13;;;13.90;99.90;;;;;;6229673;22;20465;-73
2022/10/02 04:59:03;;;;;;;5.10;1.90;;;13.90;99.90;;;;;;6251621;22;20991;-73
2022/10/02 05:01:43;;;;;;;4.90;2.20;;;13.80;99.90;;;;;;6230580;22;20936;-73
2022/10/02 05:04:32;;;;;;;4.10;1.60;;;13.80;99.90;;;;;;6218473;22;20190;-73
2022/10/02 05:07:17;;;;;;;5.00;2.00;;;13.80;99.90;;;;;;6234393;22;20481;-73
2022/10/02 05:09:55;;;;;;;5.60;2.20;;;13.70;99.90;;;;;;6235459;22;20458;-73
2022/10/02 05:12:46;;;;;;;5.13;2.10;;;13.70;99.90;;;;;;6256683;22;20461;-73
2022/10/02 05:15:32;;;;;;;6.43;2.10;;;13.80;99.90;;;;;;6233680;22;20526;-73
2022/10/02 05:18:13;;;;;;;4.87;2.07;;;13.80;99.90;;;;;;6246539;22;20549;-73
2022/10/02 05:20:55;;;;;;;5.77;2.80;;;13.80;99.90;;;;;;6247405;22;20435;-73
2022/10/02 05:23:36;;;;;;;6.87;1.87;;;13.80;99.90;;;;;;6238102;22;20448;-73
2022/10/02 05:26:20;;;;;;;9.57;2.43;;;13.80;99.90;;;;;;6239410;22;20688;-73
2022/10/02 05:29:06;;;;;;;3.93;1.80;;;13.80;99.90;;;;;;6249250;22;20515;-73
2022/10/02 05:31:48;;;;;;;6.60;2.73;;;13.80;99.90;;;;;;6238877;22;20435;-74
2022/10/02 05:34:30;;;;;;;6.60;2.07;;;13.90;99.90;;;;;;6249985;22;20471;-73
2022/10/02 05:37:18;;;;;;;3.90;2.00;;;13.90;99.90;;;;;;6243598;22;20436;-74
2022/10/02 05:39:54;;;;;;;5.60;1.87;;;13.90;99.90;;;;;;6228265;22;20514;-74
2022/10/02 05:42:27;;;;;;;8.00;2.47;;;13.90;99.90;;;;;;6247808;22;20459;-74
2022/10/02 05:45:02;;;;;;;4.83;1.60;;;13.90;99.90;;;;;;6236417;22;20790;-76
2022/10/02 05:47:31;;;;;;;8.10;2.60;;;13.90;99.90;;;;;;6247042;22;20474;-76
2022/10/02 05:50:02;;;;;;;7.17;2.50;;;14.00;99.90;;;;;;6243429;22;20467;-76
2022/10/02 05:52:35;;;;;;;3.90;2.00;;;14.00;99.90;;;;;;6239574;22;20470;-76
2022/10/02 05:55:14;;;;;;;4.90;2.30;;;14.00;99.90;;;;;;6243706;22;20547;-76
2022/10/02 05:57:47;;;;;;;4.53;1.90;;;14.00;99.90;;;;;;6238603;22;20440;-76
2022/10/02 06:00:27;;;;;;;4.70;2.20;;;14.00;99.90;;;;;;6242089;22;20522;-76
2022/10/02 06:03:00;;;;;;;3.53;2.07;;;14.00;99.90;;;;;;6241089;22;20459;-76
2022/10/02 06:05:38;;;;;;;5.07;2.00;;;14.00;99.90;;;;;;6239308;22;20495;-76
2022/10/02 06:08:09;;;;;;;6.20;2.20;;;14.00;99.90;;;;;;6234690;22;20513;-75
2022/10/02 06:10:48;;;;;;;7.93;2.30;;;14.00;99.90;;;;;;6221996;22;20442;-77
2022/10/02 06:13:21;;;;;;;7.03;2.50;;;13.90;99.90;;;;;;6241074;22;20426;-77
2022/10/02 06:15:52;;;;;;;5.70;1.80;;;13.90;99.90;;;;;;6226271;22;21008;-77
2022/10/02 06:18:22;;;;;;;6.57;1.90;;;13.90;99.90;;;;;;6231311;22;20964;-76
2022/10/02 06:20:54;;;;;;;6.30;2.63;;;14.00;99.90;;;;;;6226181;22;20999;-77
2022/10/02 06:23:24;;;;;;;6.80;2.17;;;13.90;99.90;;;;;;6233401;22;20560;-77
2022/10/02 06:25:55;;;;;;;4.40;2.00;;;13.90;99.90;;;;;;6231211;22;20481;-77
2022/10/02 06:28:29;;;;;;;4.77;2.10;;;13.90;99.90;;;;;;6216143;22;20469;-76
2022/10/02 06:31:01;;;;;;;4.73;2.50;;;13.80;99.90;;;;;;6223991;22;20444;-76
2022/10/02 06:33:31;;;;;;;7.17;2.87;;;13.70;99.90;;;;;;6232022;22;20437;-76
2022/10/02 06:36:25;;;;;;;6.13;3.10;;;13.60;99.90;;;;;;6231033;22;20818;-76
2022/10/02 06:39:22;;;;;;;5.47;2.60;;;13.50;99.90;;;;;;6231454;22;20434;-75
2022/10/02 06:42:00;;;;;;;5.67;2.73;;;13.30;99.90;;;;;;6197476;22;20509;-75
2022/10/02 06:44:34;;;;;;;7.40;3.33;;;13.20;99.90;;;;;;6226365;22;20949;-76
2022/10/02 06:47:18;;;;;;;8.70;3.33;;;13.20;99.90;;;;;;6227051;22;20461;-76
2022/10/02 06:50:02;;;;;;;6.80;2.97;;;13.20;99.90;;;;;;6220974;22;20517;-77
2022/10/02 06:52:38;;;;;;;4.23;2.50;;;13.20;99.90;;;;;;6226511;22;20451;-77
2022/10/02 06:55:20;;;;;;;5.00;2.50;;;13.30;99.90;;;;;;6219341;22;20559;-76
2022/10/02 06:58:03;;;;;;;5.97;2.73;;;13.30;99.90;;;;;;6220432;22;20431;-73
2022/10/02 07:00:33;;;;;;;8.33;2.73;;;13.30;99.90;;;;;;6233209;22;20429;-75
2022/10/02 07:03:37;;;;;;;3.90;2.60;;;13.40;99.90;;;;;;6180493;22;1066042;-75
2022/10/02 07:06:26;;;;;;;5.07;2.30;;;13.50;99.90;;;;;;6095721;23;20224;-73
2022/10/02 07:09:35;;;;;;;5.30;3.20;;;13.60;99.90;;;;;;6218112;22;20465;-77
2022/10/02 07:12:16;;;;;;;5.53;4.40;;;13.70;99.90;;;;;;6231356;22;20432;-77
2022/10/02 07:15:02;;;;;;;5.97;4.23;;;13.80;99.90;;;;;;6224596;22;21012;-79
2022/10/02 07:17:48;;;;;;;3.50;2.07;;;13.80;99.90;;;;;;6232105;22;20459;-76
2022/10/02 07:20:29;;;;;;;4.43;1.90;;;13.70;99.90;;;;;;6218911;22;20440;-76
2022/10/02 07:23:13;;;;;;;5.83;2.27;;;13.70;99.90;;;;;;6240343;22;20438;-77
2022/10/02 07:26:10;;;;;;;6.10;2.60;;;13.60;99.90;;;;;;6235495;22;20484;-77
2022/10/02 07:28:42;;;;;;;4.27;2.00;;;13.60;99.90;;;;;;6224241;22;20431;-77
2022/10/02 07:31:21;;;;;;;4.73;2.33;;;13.50;99.90;;;;;;6230769;22;20518;-77
2022/10/02 07:34:05;;;;;;;6.40;2.50;;;13.60;99.90;;;;;;6236484;22;20426;-78
2022/10/02 07:36:44;;;;;;;2.90;2.30;;;13.60;99.90;;;;;;6231348;22;20527;-78
2022/10/02 07:39:21;;;;;;;3.93;2.40;;;13.50;99.90;;;;;;6230388;22;20434;-77
2022/10/02 07:42:12;;;;;;;4.00;2.57;;;13.50;99.90;;;;;;6232042;22;20494;-77
2022/10/02 07:45:10;;;;;;;6.63;2.67;;;13.40;99.90;;;;;;6231734;22;20457;-76
2022/10/02 07:48:13;;;;;;;5.73;3.80;;;13.40;99.90;;;;;;6222013;22;20183;-76
2022/10/02 07:50:53;;;;;;;5.20;3.60;;;13.40;99.90;;;;;;6212597;22;20440;-76
2022/10/02 07:53:27;;;;;;;4.00;3.33;;;13.30;99.90;;;;;;6232594;22;20946;-77
2022/10/02 07:55:56;;;;;;;4.70;4.20;;;13.30;99.90;;;;;;6228605;22;20483;-71
2022/10/02 07:58:32;;;;;;;5.40;3.80;;;13.20;99.90;;;;;;6236882;22;20457;-76
2022/10/02 08:01:01;;;;;;;3.72;3.10;;;13.20;99.90;;;;;;6232585;22;20187;-76
2022/10/02 08:03:35;;;;;;;3.60;3.30;;;13.20;99.90;;;;;;6230592;22;20188;-78
2022/10/02 08:06:03;;;;;;;3.90;3.40;;;13.20;99.90;;;;;;6235144;22;20454;-77
2022/10/02 08:08:39;;;;;;;4.60;4.20;;;13.20;99.90;;;;;;6241990;22;20271;-78
2022/10/02 08:11:10;;;;;;;3.60;2.55;;;13.20;99.90;;;;;;6234654;22;20483;-77
2022/10/02 08:13:41;;;;;;;4.30;3.70;;;13.20;99.90;;;;;;6236460;22;20191;-77
2022/10/02 08:16:09;;;;;;;4.00;2.70;;;13.30;99.90;;;;;;6245493;22;20482;-76
2022/10/02 08:18:42;;;;;;;3.95;2.80;;;13.30;99.90;;;;;;6234589;22;20604;-78
2022/10/02 08:21:14;;;;;;;4.80;2.87;;;13.30;99.90;;;;;;6248784;22;20204;-79
2022/10/02 08:23:48;;;;;;;3.13;2.70;;;13.30;99.90;;;;;;6231100;22;20438;-77
2022/10/02 08:26:20;;;;;;;2.93;2.73;;;13.30;99.90;;;;;;6226238;22;20468;-77
2022/10/02 08:28:53;;;;;;;3.23;2.63;;;13.40;99.90;;;;;;6235739;22;20514;-78
2022/10/02 08:31:22;;;;;;;3.30;2.23;;;13.50;99.90;;;;;;6217674;22;20508;-78
2022/10/02 08:33:50;;;;;;;2.47;1.70;;;13.70;99.90;;;;;;6220495;22;20514;-80
2022/10/02 08:36:50;;;;;;;1.90;1.67;;;13.70;99.90;;;;;;6225061;22;20501;-81
2022/10/02 08:40:01;;;;;;;3.53;1.63;;;13.70;99.90;;;;;;6234603;22;20436;-77
2022/10/02 08:42:54;;;;;;;4.00;2.17;;;13.70;99.90;;;;;;6085189;23;20436;-72
2022/10/02 08:45:55;;;;;;;1.90;1.80;;;13.80;99.90;;;;;;6223630;22;20534;-77
2022/10/02 08:48:48;;;;;;;3.87;2.47;;;13.60;99.90;;;;;;6227748;22;20514;-78
2022/10/02 08:51:59;;;;;;;6.60;3.10;;;13.60;99.90;;;;;;6231563;22;20435;-77
2022/10/02 08:55:12;;;;;;;4.47;2.97;;;13.60;99.90;;;;;;6227745;22;20457;-77
2022/10/02 08:58:16;;;;;;;4.23;2.90;;;13.60;99.90;;;;;;6230038;22;20554;-78
2022/10/02 09:00:54;;;;;;;2.80;2.33;;;13.60;99.90;;;;;;6220007;22;20427;-77
2022/10/02 09:03:58;;;;;;;3.60;2.33;;;13.70;99.90;;;;;;6229874;22;20438;-77
2022/10/02 09:07:05;;;;;;;2.33;1.80;;;13.90;99.90;;;;;;6226488;22;20821;-77
2022/10/02 09:10:17;;;;;;;2.57;2.20;;;13.90;99.90;;;;;;6162213;22;20847;-77
2022/10/02 09:13:22;;;;;;;3.00;2.20;;;14.00;99.90;;;;;;6228578;22;20506;-77
2022/10/02 09:16:01;;;;;;;2.00;1.90;;;14.10;99.90;;;;;;6193449;22;20550;-78
2022/10/02 09:18:48;;;;;;;2.63;2.10;;;14.20;99.90;;;;;;6224046;22;20432;-78
2022/10/02 09:21:17;;;;;;;2.70;2.50;;;14.30;99.90;;;;;;6228951;22;20464;-77
2022/10/02 09:24:22;;;;;;;2.93;2.70;;;14.40;99.90;;;;;;6223929;22;20428;-77
2022/10/02 09:27:31;;;;;;;3.33;2.53;;;14.50;99.90;;;;;;6229237;22;20930;-78
2022/10/02 09:30:23;;;;;;;3.33;3.03;;;14.60;99.90;;;;;;6226729;22;20432;-78
2022/10/02 09:33:31;;;;;;;3.20;2.50;;;14.70;99.90;;;;;;6234701;22;20440;-78
2022/10/02 09:36:44;;;;;;;2.23;2.00;;;14.70;99.90;;;;;;6234788;22;20517;-78
2022/10/02 09:39:36;;;;;;;2.27;1.73;;;14.80;99.90;;;;;;6227802;22;20436;-80
2022/10/02 09:42:53;;;;;;;3.23;2.27;;;14.80;99.90;;;;;;6226323;22;20468;-77
2022/10/02 09:46:03;;;;;;;3.10;2.40;;;14.90;99.90;;;;;;6234084;22;20453;-78
2022/10/02 09:49:24;;;;;;;3.20;2.07;;;14.90;99.90;;;;;;6227436;22;20505;-80
2022/10/02 09:52:17;;;;;;;3.33;1.83;;;14.90;99.90;;;;;;6119546;22;20441;-76
2022/10/02 09:55:21;;;;;;;2.93;2.30;;;15.00;99.90;;;;;;6231499;22;20461;-75
2022/10/02 09:58:42;;;;;;;3.23;2.47;;;14.90;99.90;;;;;;6227132;22;20532;-78
2022/10/02 10:01:46;;;;;;;3.67;2.90;;;14.90;99.90;;;;;;6228331;22;20574;-77
2022/10/02 10:04:40;;;;;;;3.47;3.17;;;14.90;99.90;;;;;;6228816;22;20453;-79
2022/10/02 10:07:26;;;;;;;2.67;2.47;;;14.80;99.90;;;;;;6235595;22;20430;-78
2022/10/02 10:10:23;;;;;;;3.00;2.70;;;14.80;99.90;;;;;;6235787;22;20460;-78
2022/10/02 10:13:31;;;;;;;3.53;3.20;;;14.90;99.90;;;;;;6237573;22;20430;-76
2022/10/02 10:16:18;;;;;;;2.37;2.17;;;14.80;99.90;;;;;;6177696;23;20499;-77
2022/10/02 10:19:23;;;;;;;2.00;1.80;;;14.90;99.90;;;;;;6214040;22;20774;-77
2022/10/02 10:22:25;;;;;;;1.63;1.53;;;14.90;99.90;;;;;;6224851;22;20465;-76
2022/10/02 10:25:35;;;;;;;1.90;1.50;;;15.00;99.90;;;;;;6211586;23;20454;-77
2022/10/02 10:28:46;;;;;;;1.93;1.73;;;15.10;99.90;;;;;;6143850;22;20440;-77
2022/10/02 10:31:45;;;;;;;2.47;1.60;;;15.30;99.90;;;;;;6234114;22;20433;-77
2022/10/02 10:34:45;;;;;;;2.03;1.80;;;15.50;99.90;;;;;;6237406;22;20494;-77
2022/10/02 10:40:31;;;;;;;1.97;1.80;;;15.60;99.90;;;;;;6235306;22;20528;-77
2022/10/02 10:43:35;;;;;;;1.93;1.60;;;15.60;99.90;;;;;;6233745;22;20460;-77
2022/10/02 10:46:28;;;;;;;1.80;1.60;;;15.50;99.90;;;;;;6240695;22;20508;-78
2022/10/02 10:49:14;;;;;;;2.00;1.50;;;15.40;99.90;;;;;;6231123;22;20491;-79
2022/10/02 10:51:48;;;;;;;1.57;1.40;;;15.40;99.90;;;;;;6234944;22;20469;-75
2022/10/02 10:54:47;;;;;;;1.33;0.90;;;15.50;99.90;;;;;;6229676;22;20449;-76
2022/10/02 10:57:24;;;;;;;1.57;1.47;;;15.60;99.90;;;;;;6225792;22;20455;-74
2022/10/02 11:00:20;;;;;;;1.53;1.20;;;15.60;99.90;;;;;;6232117;22;20490;-74
2022/10/02 11:03:20;;;;;;;1.50;1.40;;;15.60;99.90;;;;;;6158235;22;20470;-74
2022/10/02 11:06:30;;;;;;;1.50;1.30;;;15.60;99.90;;;;;;6227885;22;20509;-75
2022/10/02 11:09:29;;;;;;;1.67;1.50;;;15.40;99.90;;;;;;6231122;22;20457;-76
2022/10/02 11:12:13;;;;;;;1.43;1.30;;;15.30;99.90;;;;;;6227465;22;20436;-76
2022/10/02 11:14:54;;;;;;;1.97;1.33;;;15.20;99.90;;;;;;6235224;22;20480;-76
2022/10/02 11:17:38;;;;;;;1.70;1.60;;;15.10;99.90;;;;;;6220196;22;20479;-76
2022/10/02 11:20:36;;;;;;;1.87;1.60;;;15.10;99.90;;;;;;6239283;22;20429;-77
2022/10/02 11:23:26;;;;;;;1.60;1.50;;;15.00;99.90;;;;;;6191994;22;20512;-76
2022/10/02 11:26:11;;;;;;;2.27;1.70;;;14.90;99.90;;;;;;6233903;22;20520;-76
2022/10/02 11:29:08;;;;;;;2.03;1.67;;;14.80;99.90;;;;;;6230711;22;20433;-76
2022/10/02 11:32:13;;;;;;;1.53;1.40;;;14.80;99.90;;;;;;6231589;22;20429;-77
2022/10/02 11:34:57;;;;;;;1.27;0.80;;;14.80;99.90;;;;;;6239675;22;20461;-77
2022/10/02 11:37:57;;;;;;;1.07;0.90;;;14.80;99.90;;;;;;6252410;22;20444;-77
2022/10/02 11:40:40;;;;;;;1.63;1.10;;;14.80;99.90;;;;;;6241905;22;20476;-77
2022/10/02 11:43:26;;;;;;;1.40;1.30;;;14.90;99.90;;;;;;6236100;22;20962;-78
2022/10/02 11:46:10;;;;;;;1.30;1.20;;;15.00;99.90;;;;;;6230629;22;20433;-78
2022/10/02 11:49:25;;;;;;;2.40;1.77;;;15.10;99.90;;;;;;6231019;22;20910;-78
2022/10/02 11:52:12;;;;;;;0.87;0.83;;;15.10;99.90;;;;;;6238025;22;21132;-78
2022/10/02 11:54:55;;;;;;;1.50;1.40;;;15.00;99.90;;;;;;6219090;22;20514;-78
2022/10/02 11:57:31;;;;;;;1.30;1.20;;;15.00;99.90;;;;;;6239103;22;20432;-78
2022/10/02 12:00:23;;;;;;;1.70;1.40;;;15.00;99.90;;;;;;6232778;22;20510;-77
2022/10/02 12:02:58;;;;;;;1.13;1.03;;;15.00;99.90;;;;;;6234336;22;20442;-77
2022/10/02 12:05:44;;;;;;;1.53;1.33;;;15.00;99.90;;;;;;6237843;22;20519;-78
2022/10/02 12:08:19;;;;;;;1.20;1.10;;;15.00;99.90;;;;;;6235366;22;20476;-78
2022/10/02 12:10:56;;;;;;;1.00;0.90;;;15.00;99.90;;;;;;6238877;22;20448;-77
2022/10/02 12:13:46;;;;;;;1.30;1.20;;;15.20;99.90;;;;;;6242676;22;20457;-78
2022/10/02 12:16:27;;;;;;;1.47;0.77;;;14.90;99.90;;;;;;6245490;22;20510;-79
2022/10/02 12:19:08;;;;;;;1.10;1.00;;;15.00;99.90;;;;;;6233208;22;20461;-78
2022/10/02 12:27:43;;;;;;;0.83;0.83;;;15.00;99.90;;;;;;6242235;22;20441;-78
2022/10/02 12:30:16;;;;;;;0.80;0.80;;;15.10;99.90;;;;;;6255839;22;20429;-72
2022/10/02 12:33:00;;;;;;;1.10;1.00;;;15.10;99.90;;;;;;6225090;22;20494;-78
2022/10/02 12:36:04;;;;;;;0.87;0.87;;;15.10;99.90;;;;;;6217516;22;21012;-79
2022/10/02 12:38:51;;;;;;;1.20;1.10;;;15.20;99.90;;;;;;6186060;22;21003;-79
2022/10/02 12:41:34;;;;;;;1.27;1.17;;;15.20;99.90;;;;;;6229170;22;20453;-79
2022/10/02 12:44:34;;;;;;;1.07;0.97;;;15.10;99.90;;;;;;6227373;22;20493;-80
2022/10/02 12:47:38;;;;;;;1.40;1.00;;;15.30;99.90;;;;;;6234308;22;20505;-79
2022/10/02 12:50:20;;;;;;;1.13;0.83;;;15.10;99.90;;;;;;6218907;22;20433;-80
2022/10/02 12:53:16;;;;;;;1.40;0.90;;;15.00;99.90;;;;;;6226328;22;20790;-79
2022/10/02 12:56:16;;;;;;;1.20;1.00;;;15.00;99.90;;;;;;6228930;22;20497;-80
2022/10/02 12:58:56;;;;;;;1.57;1.03;;;15.00;99.90;;;;;;6218622;22;20431;-79
2022/10/02 13:02:04;;;;;;;0.80;0.80;;;14.90;99.90;;;;;;6231205;22;20476;-79
2022/10/02 13:05:04;;;;;;;1.00;0.90;;;14.90;99.90;;;;;;6144850;22;20510;-80
2022/10/02 13:08:14;;;;;;;1.17;1.07;;;14.90;99.90;;;;;;6222532;22;20433;-80
2022/10/02 13:10:47;;;;;;;1.03;0.93;;;14.90;99.90;;;;;;6182624;22;20520;-78
2022/10/02 13:13:33;;;;;;;1.17;1.00;;;14.90;99.90;;;;;;6217765;22;20451;-79
2022/10/02 13:16:07;;;;;;;0.77;0.73;;;14.80;99.90;;;;;;6227990;22;20947;-77
2022/10/02 13:18:56;;;;;;;0.80;0.80;;;14.80;99.90;;;;;;6213321;22;20441;-79
2022/10/02 13:21:29;;;;;;;2.07;1.60;;;14.80;99.90;;;;;;6232710;22;20433;-79
2022/10/02 13:24:13;;;;;;;1.00;1.00;;;14.70;99.90;;;;;;6226825;22;20469;-78
2022/10/02 13:26:50;;;;;;;0.90;0.90;;;14.60;99.90;;;;;;6228342;22;20433;-79
2022/10/02 13:29:42;;;;;;;0.90;0.90;;;14.60;99.90;;;;;;6227555;22;20476;-78
2022/10/02 13:32:37;;;;;;;1.53;0.70;;;14.60;99.90;;;;;;6231326;22;20432;-79
2022/10/02 13:35:23;;;;;;;0.90;0.70;;;14.50;99.90;;;;;;6226899;22;20507;-79
2022/10/02 13:38:02;;;;;;;1.00;0.87;;;14.50;99.90;;;;;;6226327;22;20931;-79
2022/10/02 13:40:37;;;;;;;1.17;0.80;;;14.50;99.90;;;;;;6242179;22;20786;-78
2022/10/02 13:43:26;;;;;;;0.90;0.80;;;14.50;99.90;;;;;;6231744;22;20802;-79
2022/10/02 13:46:02;;;;;;;0.70;0.60;;;14.60;99.90;;;;;;6219059;22;20449;-78
2022/10/02 13:48:41;;;;;;;1.10;0.80;;;14.60;99.90;;;;;;6226192;22;20432;-77
2022/10/02 13:51:17;;;;;;;1.00;0.80;;;14.70;99.90;;;;;;6236259;22;20521;-79
2022/10/02 13:54:03;;;;;;;0.97;0.90;;;14.60;99.90;;;;;;6230142;22;20449;-78
2022/10/02 13:56:42;;;;;;;1.53;0.90;;;14.70;99.90;;;;;;6238942;22;20500;-78
2022/10/02 13:59:42;;;;;;;0.70;0.70;;;14.70;99.90;;;;;;6224942;22;20433;-78
2022/10/02 14:02:23;;;;;;;0.90;0.80;;;14.60;99.90;;;;;;6229904;22;20485;-81
2022/10/02 14:04:57;;;;;;;1.50;0.83;;;14.50;99.90;;;;;;6225860;22;20504;-78
2022/10/02 14:07:44;;;;;;;0.70;0.70;;;14.50;99.90;;;;;;6220708;22;20973;-79
2022/10/02 14:10:27;;;;;;;0.70;0.67;;;14.50;99.90;;;;;;6233045;22;20579;-79
2022/10/02 14:13:06;;;;;;;0.80;0.80;;;14.50;99.90;;;;;;6220904;22;21034;-79
2022/10/02 14:15:50;;;;;;;1.00;0.80;;;14.50;99.90;;;;;;6235368;22;20432;-78